Time;durP1;ratioP1;P1;durP2;ratioP2;P2;SDS_P1;SDS_P2;PMS_P1;PMS_P2;Temp;Humidity;BMP_temperature;BMP_pressure;BME280_temperature;BME280_humidity;BME280_pressure;Samples;Min_cycle;Max_cycle;Signal;HPM_P1;HPM_P2
2021/08/10 00:01:56;;;;;;;4.20;1.60;;;;;;;21.93;58.15;101502.72;5053983;28;20056;-60
2021/08/10 00:04:22;;;;;;;3.28;1.60;;;;;;;21.93;58.08;101494.78;5054270;28;20025;-60
2021/08/10 00:06:47;;;;;;;4.60;1.70;;;;;;;21.90;58.20;101493.25;5053091;28;20032;-59
2021/08/10 00:09:13;;;;;;;3.30;1.60;;;;;;;21.89;58.28;101490.72;5053864;28;20421;-60
2021/08/10 00:11:38;;;;;;;3.67;1.65;;;;;;;21.91;58.17;101494.91;5053802;28;20039;-60
2021/08/10 00:14:03;;;;;;;4.50;1.50;;;;;;;21.91;57.98;101502.03;5052699;28;20025;-59
2021/08/10 00:16:31;;;;;;;3.58;1.70;;;;;;;21.89;58.20;101496.88;5053980;28;20399;-60
2021/08/10 00:18:57;;;;;;;3.70;1.83;;;;;;;21.89;58.04;101494.22;5053536;28;20033;-60
2021/08/10 00:21:22;;;;;;;3.37;1.70;;;;;;;21.89;58.21;101488.06;5052740;28;20083;-60
2021/08/10 00:23:48;;;;;;;3.45;1.52;;;;;;;21.89;58.11;101490.72;5053326;28;20345;-60
2021/08/10 00:26:14;;;;;;;4.07;1.75;;;;;;;21.88;57.95;101487.22;5053082;28;20120;-59
2021/08/10 00:28:42;;;;;;;3.30;1.40;;;;;;;21.87;57.96;101484.69;5052338;28;20120;-59
2021/08/10 00:31:08;;;;;;;4.13;1.70;;;;;;;21.86;58.19;101489.16;5053028;28;20112;-59
2021/08/10 00:33:33;;;;;;;3.30;1.63;;;;;;;21.88;58.06;101494.34;5053557;28;20105;-61
2021/08/10 00:35:59;;;;;;;3.85;1.70;;;;;;;21.87;57.96;101498.81;5052379;28;20085;-60
2021/08/10 00:38:24;;;;;;;3.38;1.60;;;;;;;21.86;57.88;101497.13;5053402;28;20029;-59
2021/08/10 00:41:00;;;;;;;3.13;1.33;;;;;;;21.86;57.88;101491.00;5053060;28;20018;-59
2021/08/10 00:43:39;;;;;;;3.72;1.45;;;;;;;21.85;57.94;101490.13;5052652;28;20486;-60
2021/08/10 00:46:08;;;;;;;3.20;1.63;;;;;;;21.86;57.93;101493.66;5052870;28;20090;-60
2021/08/10 00:48:33;;;;;;;3.38;1.65;;;;;;;21.85;58.00;101497.25;5052302;28;20413;-60
2021/08/10 00:50:59;;;;;;;4.47;1.70;;;;;;;21.85;57.98;101492.78;5052920;28;20031;-60
2021/08/10 00:53:25;;;;;;;3.25;1.48;;;;;;;21.84;57.98;101490.25;5053075;28;20028;-61
2021/08/10 00:55:50;;;;;;;3.50;1.50;;;;;;;21.84;58.10;101488.47;5051869;28;20377;-61
2021/08/10 00:58:16;;;;;;;4.10;1.90;;;;;;;21.84;57.98;101482.31;5053225;28;20491;-61
2021/08/10 01:00:41;;;;;;;4.30;1.88;;;;;;;21.84;57.97;101483.16;5053299;28;20104;-61
2021/08/10 01:03:06;;;;;;;4.13;1.70;;;;;;;21.83;58.13;101481.47;5051008;28;20171;-60
2021/08/10 01:05:32;;;;;;;3.30;1.60;;;;;;;21.82;58.11;101466.53;5053070;28;20075;-59
2021/08/10 01:08:04;;;;;;;3.65;1.60;;;;;;;21.83;57.96;101480.66;5052577;28;20062;-59
2021/08/10 01:10:34;;;;;;;3.40;1.60;;;;;;;21.82;57.93;101479.78;5052037;28;20060;-60
2021/08/10 01:13:20;;;;;;;3.63;1.27;;;;;;;21.81;58.05;101478.13;5052747;28;20025;-60
2021/08/10 01:15:57;;;;;;;4.10;1.73;;;;;;;21.82;58.13;101478.94;5052711;28;20082;-60
2021/08/10 01:18:31;;;;;;;4.13;1.77;;;;;;;21.82;57.84;101489.56;5052124;28;20035;-61
2021/08/10 01:21:18;;;;;;;3.47;1.60;;;;;;;21.81;58.08;101491.38;5052570;28;20115;-59
2021/08/10 01:23:48;;;;;;;3.45;1.58;;;;;;;21.81;57.81;101490.53;5051861;28;20037;-60
2021/08/10 01:26:23;;;;;;;3.35;1.58;;;;;;;21.80;57.94;101492.34;5052536;28;20025;-60
2021/08/10 01:29:10;;;;;;;4.97;1.60;;;;;;;21.81;57.84;101490.53;5052432;28;20036;-59
2021/08/10 01:31:43;;;;;;;3.13;1.40;;;;;;;21.79;57.83;101490.66;5051834;28;20025;-60
2021/08/10 01:34:17;;;;;;;3.13;1.50;;;;;;;21.78;57.99;101493.44;5051977;28;20024;-59
2021/08/10 01:36:45;;;;;;;5.70;1.70;;;;;;;21.79;57.86;101489.84;5052537;28;20036;-60
2021/08/10 01:39:15;;;;;;;4.20;1.75;;;;;;;21.78;57.97;101488.13;5051795;28;20075;-60
2021/08/10 01:41:44;;;;;;;3.83;1.88;;;;;;;21.76;57.94;101487.44;5052854;28;20047;-60
2021/08/10 01:44:11;;;;;;;4.43;1.48;;;;;;;21.77;57.89;101484.66;5052473;28;20465;-59
2021/08/10 01:46:39;;;;;;;3.10;1.50;;;;;;;21.77;58.04;101494.44;5051326;28;20451;-59
2021/08/10 01:49:05;;;;;;;4.78;1.70;;;;;;;21.78;57.80;101490.78;5052218;28;20076;-60
2021/08/10 01:51:30;;;;;;;4.03;1.73;;;;;;;21.74;57.85;101469.84;5052591;28;20481;-60
2021/08/10 01:53:59;;;;;;;3.55;1.60;;;;;;;21.74;57.89;101467.19;5051199;28;20025;-59
2021/08/10 01:56:26;;;;;;;3.80;1.70;;;;;;;21.76;57.97;101455.59;5052446;28;20021;-59
2021/08/10 01:58:57;;;;;;;3.42;1.55;;;;;;;21.74;57.92;101482.28;5051458;28;20029;-59
2021/08/10 02:01:25;;;;;;;3.55;1.60;;;;;;;21.74;57.82;101487.56;5052040;28;20048;-60
2021/08/10 02:03:50;;;;;;;3.97;1.70;;;;;;;21.76;57.78;101474.19;5051862;28;20100;-60
2021/08/10 02:06:18;;;;;;;3.78;1.88;;;;;;;21.74;57.91;101476.97;5051202;28;20442;-60
2021/08/10 02:08:44;;;;;;;5.20;1.75;;;;;;;21.75;57.83;101481.31;5051817;28;20227;-59
2021/08/10 02:11:13;;;;;;;3.67;1.60;;;;;;;21.75;57.82;101483.97;5052202;28;20101;-59
2021/08/10 02:13:38;;;;;;;3.30;1.55;;;;;;;21.74;57.83;101488.41;5051279;28;20049;-59
2021/08/10 02:16:06;;;;;;;3.30;1.40;;;;;;;21.73;57.84;101481.44;5051711;28;20491;-59
2021/08/10 02:18:34;;;;;;;4.07;1.80;;;;;;;21.74;57.86;101488.41;5051914;28;20445;-60
2021/08/10 02:21:02;;;;;;;4.50;1.90;;;;;;;21.72;57.97;101484.22;5050793;28;20048;-59
2021/08/10 02:23:31;;;;;;;4.43;1.63;;;;;;;21.73;57.62;101492.06;5051798;28;20021;-59
2021/08/10 02:25:58;;;;;;;3.60;1.40;;;;;;;21.70;57.92;101487.00;5051213;28;20171;-60
2021/08/10 02:28:24;;;;;;;4.28;1.55;;;;;;;21.72;57.61;101505.44;5051158;28;20033;-60
2021/08/10 02:30:53;;;;;;;3.10;1.50;;;;;;;21.71;57.74;101499.31;5050992;28;20044;-60
2021/08/10 02:33:26;;;;;;;4.88;1.70;;;;;;;21.72;57.65;101505.44;5051715;28;20028;-60
2021/08/10 02:35:56;;;;;;;3.72;1.58;;;;;;;21.72;57.71;101508.09;5050698;28;20522;-60
2021/08/10 02:38:23;;;;;;;3.22;1.60;;;;;;;21.70;57.37;101494.97;5051880;28;20108;-60
2021/08/10 02:40:50;;;;;;;3.92;1.60;;;;;;;21.71;57.61;101498.44;5050883;28;20021;-60
2021/08/10 02:43:17;;;;;;;4.20;1.40;;;;;;;21.70;57.67;101494.97;5051991;28;20059;-60
2021/08/10 02:45:43;;;;;;;5.03;1.45;;;;;;;21.68;57.83;101488.97;5053684;28;20049;-60
2021/08/10 02:48:08;;;;;;;4.28;1.90;;;;;;;21.69;57.65;101490.63;5054628;28;20025;-60
2021/08/10 02:50:34;;;;;;;3.85;1.55;;;;;;;21.68;57.74;101485.44;5055554;28;20354;-60
2021/08/10 02:52:59;;;;;;;3.17;1.50;;;;;;;21.69;57.53;101489.78;5054691;28;20465;-60
2021/08/10 02:55:27;;;;;;;3.42;1.65;;;;;;;21.68;57.67;101488.97;5054404;28;20399;-60
2021/08/10 02:58:00;;;;;;;5.30;1.70;;;;;;;21.68;57.66;101488.09;5054569;28;20033;-60
2021/08/10 03:00:28;;;;;;;4.30;1.60;;;;;;;21.68;57.48;101488.09;5054777;28;20037;-59
2021/08/10 03:02:59;;;;;;;4.13;1.45;;;;;;;21.68;57.55;101493.41;5053523;28;20463;-61
2021/08/10 03:05:28;;;;;;;3.67;1.30;;;;;;;21.67;57.56;101497.06;5055054;28;20109;-60
2021/08/10 03:07:56;;;;;;;2.45;1.30;;;;;;;21.66;57.48;101496.19;5054906;28;20037;-59
2021/08/10 03:10:28;;;;;;;3.78;1.65;;;;;;;21.67;57.53;101497.06;5054315;28;20021;-60
2021/08/10 03:12:55;;;;;;;3.40;1.40;;;;;;;21.67;57.44;101502.34;5054691;28;20040;-60
2021/08/10 03:15:24;;;;;;;2.63;1.30;;;;;;;21.66;57.51;101501.50;5054973;28;20075;-60
2021/08/10 03:17:52;;;;;;;3.00;1.40;;;;;;;21.66;57.49;101505.97;5053879;28;20167;-60
2021/08/10 03:20:19;;;;;;;3.28;1.25;;;;;;;21.65;57.50;101505.16;5054991;28;20037;-59
2021/08/10 03:22:49;;;;;;;3.70;1.50;;;;;;;21.66;57.47;101495.38;5054465;28;20079;-60
2021/08/10 03:25:17;;;;;;;4.00;1.50;;;;;;;21.63;57.40;101501.75;5053766;28;20052;-60
2021/08/10 03:27:49;;;;;;;4.15;1.48;;;;;;;21.64;57.48;101502.63;5054538;28;20036;-61
2021/08/10 03:30:16;;;;;;;3.00;1.45;;;;;;;21.63;57.46;101504.41;5053972;28;20574;-59
2021/08/10 03:32:44;;;;;;;3.40;1.48;;;;;;;21.62;57.38;101502.75;5054609;28;20434;-60
2021/08/10 03:35:12;;;;;;;4.50;1.48;;;;;;;21.62;57.39;101497.44;5054781;28;20021;-59
2021/08/10 03:37:38;;;;;;;4.70;1.60;;;;;;;21.63;57.33;101506.22;5053826;28;20441;-61
2021/08/10 03:40:06;;;;;;;4.35;1.50;;;;;;;21.61;57.27;101498.41;5054194;28;20472;-60
2021/08/10 03:42:34;;;;;;;3.28;1.48;;;;;;;21.60;57.21;101496.72;5054366;28;20460;-60
2021/08/10 03:45:00;;;;;;;3.83;1.50;;;;;;;21.59;57.27;101489.75;5053185;28;20140;-59
2021/08/10 03:47:26;;;;;;;3.85;1.70;;;;;;;21.61;57.22;101492.28;5054165;28;20111;-59
2021/08/10 03:49:53;;;;;;;3.92;1.67;;;;;;;21.61;57.11;101484.31;5054078;28;20027;-60
2021/08/10 03:52:19;;;;;;;3.05;1.50;;;;;;;21.59;57.22;101486.25;5053477;28;20028;-59
2021/08/10 03:54:44;;;;;;;3.63;1.42;;;;;;;21.58;57.35;101482.75;5053793;28;20024;-60
2021/08/10 03:57:20;;;;;;;4.28;1.88;;;;;;;21.60;57.25;101487.94;5053609;28;20021;-60
2021/08/10 03:59:56;;;;;;;4.15;1.80;;;;;;;21.59;57.07;101479.16;5053017;28;20469;-60
2021/08/10 04:02:22;;;;;;;4.50;1.60;;;;;;;21.57;57.35;101478.44;5054106;28;20037;-60
2021/08/10 04:04:51;;;;;;;3.50;1.50;;;;;;;21.58;57.01;101479.28;5053689;28;20024;-62
2021/08/10 04:07:16;;;;;;;3.42;1.63;;;;;;;21.59;57.12;101478.28;5052970;28;20502;-59
2021/08/10 04:09:42;;;;;;;3.45;1.60;;;;;;;21.55;57.10;101483.03;5053972;28;20029;-59
2021/08/10 04:12:10;;;;;;;4.10;1.60;;;;;;;21.58;57.29;101487.22;5053667;28;20036;-60
2021/08/10 04:14:36;;;;;;;3.35;1.58;;;;;;;21.58;57.03;101487.22;5052906;28;20037;-60
2021/08/10 04:17:05;;;;;;;3.75;1.45;;;;;;;21.56;57.14;101488.19;5053421;28;20021;-60
2021/08/10 04:19:34;;;;;;;5.20;1.60;;;;;;;21.57;56.92;101489.06;5052950;28;20059;-59
2021/08/10 04:22:03;;;;;;;4.93;1.80;;;;;;;21.56;57.10;101490.84;5053289;28;20052;-61
2021/08/10 04:24:29;;;;;;;2.92;1.40;;;;;;;21.55;57.05;101488.31;5053603;28;20033;-60
2021/08/10 04:26:55;;;;;;;3.63;1.60;;;;;;;21.56;57.07;101497.97;5052562;28;20452;-60
2021/08/10 04:29:21;;;;;;;3.30;1.40;;;;;;;21.55;56.96;101496.28;5053609;28;20032;-61
2021/08/10 04:31:46;;;;;;;4.40;1.80;;;;;;;21.54;56.95;101491.97;5053346;28;20027;-60
2021/08/10 04:34:12;;;;;;;4.35;1.40;;;;;;;21.53;56.81;101501.72;5052524;28;20112;-60
2021/08/10 04:36:37;;;;;;;4.85;1.80;;;;;;;21.54;56.99;101499.91;5053218;28;20090;-60
2021/08/10 04:39:04;;;;;;;4.00;1.60;;;;;;;21.54;56.97;101499.91;5053038;28;20025;-60
2021/08/10 04:41:29;;;;;;;4.85;1.77;;;;;;;21.54;56.80;101492.78;5052604;28;20040;-60
2021/08/10 04:43:54;;;;;;;3.53;1.60;;;;;;;21.53;56.84;101496.41;5052968;28;20033;-60
2021/08/10 04:46:25;;;;;;;3.67;1.60;;;;;;;21.52;56.85;101493.88;5053006;28;20052;-60
2021/08/10 04:48:52;;;;;;;4.45;1.70;;;;;;;21.53;56.82;101496.41;5052125;28;20021;-60
2021/08/10 04:51:18;;;;;;;4.22;1.75;;;;;;;21.52;56.83;101489.44;5053094;28;20122;-60
2021/08/10 04:53:46;;;;;;;4.30;1.70;;;;;;;21.52;56.89;101483.28;5053114;28;20064;-61
2021/08/10 04:56:11;;;;;;;5.57;1.60;;;;;;;21.52;56.89;101484.13;5052434;28;20284;-60
2021/08/10 04:58:37;;;;;;;3.75;1.55;;;;;;;21.50;56.77;101485.22;5053145;28;20404;-59
2021/08/10 05:01:03;;;;;;;4.30;1.48;;;;;;;21.51;56.88;101494.88;5052871;28;20140;-59
2021/08/10 05:03:30;;;;;;;5.63;2.00;;;;;;;21.51;56.97;101505.47;5051875;28;20453;-59
2021/08/10 05:05:55;;;;;;;4.30;1.50;;;;;;;21.50;56.87;101507.28;5052826;28;20036;-60
2021/08/10 05:08:25;;;;;;;4.05;1.80;;;;;;;21.50;57.04;101512.59;5052039;28;20021;-61
2021/08/10 05:10:51;;;;;;;4.03;1.60;;;;;;;21.51;56.98;101518.75;5051892;28;20067;-63
2021/08/10 05:13:17;;;;;;;3.75;1.70;;;;;;;21.51;56.87;101513.44;5053029;28;20055;-60
2021/08/10 05:15:42;;;;;;;3.60;1.63;;;;;;;21.50;56.90;101523.19;5052187;28;20525;-59
2021/08/10 05:18:10;;;;;;;4.07;1.80;;;;;;;21.50;56.80;101525.84;5052486;28;20266;-59
2021/08/10 05:20:35;;;;;;;4.25;1.50;;;;;;;21.50;56.91;101530.31;5052519;28;20075;-60
2021/08/10 05:23:01;;;;;;;4.28;1.70;;;;;;;21.50;56.72;101527.66;5051753;28;20060;-61
2021/08/10 05:25:26;;;;;;;3.95;1.52;;;;;;;21.50;56.80;101527.66;5052784;28;20536;-61
2021/08/10 05:27:54;;;;;;;3.97;1.70;;;;;;;21.50;56.74;101530.31;5052460;28;20548;-62
2021/08/10 05:30:19;;;;;;;4.10;1.85;;;;;;;21.50;56.78;101538.28;5051718;28;20057;-60
2021/08/10 05:32:45;;;;;;;4.05;1.70;;;;;;;21.46;56.66;101540.31;5052037;28;20017;-62
2021/08/10 05:35:13;;;;;;;4.13;1.90;;;;;;;21.49;56.82;101540.09;5052446;28;20032;-59
2021/08/10 05:37:39;;;;;;;6.75;1.83;;;;;;;21.49;56.88;101541.88;5051662;28;20398;-61
2021/08/10 05:40:05;;;;;;;4.55;1.60;;;;;;;21.50;56.85;101540.91;5051710;28;20039;-62
2021/08/10 05:42:30;;;;;;;3.63;1.67;;;;;;;21.49;56.87;101537.44;5052656;28;20025;-60
2021/08/10 05:44:58;;;;;;;4.95;1.88;;;;;;;21.48;56.81;101535.75;5051173;28;20465;-62
2021/08/10 05:47:24;;;;;;;4.82;1.90;;;;;;;21.49;56.89;101539.22;5052348;28;20041;-59
2021/08/10 05:49:49;;;;;;;3.70;1.63;;;;;;;21.47;57.00;101541.16;5052241;28;20078;-60
2021/08/10 05:52:15;;;;;;;4.20;1.70;;;;;;;21.48;56.74;101546.34;5052383;28;20028;-60
2021/08/10 05:54:40;;;;;;;3.85;1.80;;;;;;;21.49;56.89;101542.75;5052540;28;20470;-61
2021/08/10 05:57:06;;;;;;;3.90;1.60;;;;;;;21.46;56.82;101540.31;5052036;28;20029;-61
2021/08/10 05:59:33;;;;;;;4.45;1.67;;;;;;;21.50;56.80;101540.91;5051543;28;20025;-60
2021/08/10 06:01:59;;;;;;;3.78;1.73;;;;;;;21.48;56.76;101546.34;5051751;28;20021;-60
2021/08/10 06:04:25;;;;;;;3.92;1.77;;;;;;;21.49;56.86;101548.03;5051788;28;20036;-61
2021/08/10 06:06:50;;;;;;;3.83;1.95;;;;;;;21.50;56.95;101554.19;5050672;28;20052;-60
2021/08/10 06:09:15;;;;;;;4.25;1.70;;;;;;;21.47;56.62;101539.31;5052149;28;20021;-61
2021/08/10 06:11:44;;;;;;;4.07;1.80;;;;;;;21.47;56.88;101539.31;5052088;28;20033;-61
2021/08/10 06:14:09;;;;;;;4.10;1.80;;;;;;;21.46;57.13;101540.31;5051584;28;20301;-60
2021/08/10 06:16:34;;;;;;;3.80;1.80;;;;;;;21.46;57.09;101548.28;5053503;28;20362;-60
2021/08/10 06:19:01;;;;;;;5.70;1.80;;;;;;;21.45;57.30;101537.78;5053632;28;20025;-59
2021/08/10 06:21:27;;;;;;;4.00;1.77;;;;;;;21.47;57.21;101549.09;5058304;28;20078;-60
2021/08/10 06:23:52;;;;;;;3.47;1.77;;;;;;;21.45;57.17;101543.09;5057599;28;20482;-59
2021/08/10 06:26:17;;;;;;;4.10;1.90;;;;;;;21.47;57.40;101544.63;5056773;28;20447;-60
2021/08/10 06:28:46;;;;;;;4.82;2.10;;;;;;;21.47;57.27;101544.63;5055727;28;20025;-60
2021/08/10 06:31:11;;;;;;;4.65;2.10;;;;;;;21.47;57.58;101547.28;5055590;28;20017;-58
2021/08/10 06:33:51;;;;;;;4.27;1.70;;;;;;;21.49;57.63;101549.84;5055027;28;20025;-60
2021/08/10 06:36:20;;;;;;;4.47;1.90;;;;;;;21.51;57.75;101551.41;5055626;28;20266;-59
2021/08/10 06:38:45;;;;;;;4.30;1.90;;;;;;;21.50;57.86;101549.72;5055228;28;20021;-60
2021/08/10 06:41:10;;;;;;;3.65;1.60;;;;;;;21.53;57.81;101538.00;5054703;28;20029;-60
2021/08/10 06:43:45;;;;;;;4.30;2.10;;;;;;;21.52;57.92;101542.47;5055343;28;20021;-59
2021/08/10 06:46:24;;;;;;;4.80;2.08;;;;;;;21.53;57.96;101544.16;5055242;28;20290;-59
2021/08/10 06:48:50;;;;;;;4.20;1.67;;;;;;;21.55;57.69;101547.53;5054332;28;20032;-59
2021/08/10 06:51:15;;;;;;;4.68;1.67;;;;;;;21.55;57.79;101541.38;5055248;28;20017;-59
2021/08/10 06:53:40;;;;;;;4.23;2.27;;;;;;;21.56;58.15;101537.75;5055433;28;20116;-59
2021/08/10 06:56:08;;;;;;;4.13;1.60;;;;;;;21.57;58.14;101542.09;5054481;28;20354;-59
2021/08/10 06:58:33;;;;;;;4.50;1.83;;;;;;;21.58;58.11;101545.56;5055837;28;20028;-58
2021/08/10 07:01:02;;;;;;;5.93;2.23;;;;;;;21.57;58.21;101544.75;5055258;28;20021;-59
2021/08/10 07:03:27;;;;;;;4.90;1.75;;;;;;;21.58;58.36;101545.56;5054932;28;20060;-58
2021/08/10 07:05:52;;;;;;;6.10;1.90;;;;;;;21.60;58.28;101548.94;5054729;28;20067;-59
2021/08/10 07:08:20;;;;;;;3.60;1.60;;;;;;;21.60;58.26;101548.94;5054666;28;20285;-60
2021/08/10 07:10:45;;;;;;;4.10;1.58;;;;;;;21.60;58.20;101549.75;5054638;28;20277;-60
2021/08/10 07:13:11;;;;;;;5.82;1.77;;;;;;;21.62;58.29;101549.63;5054938;28;20020;-60
2021/08/10 07:15:37;;;;;;;5.82;1.83;;;;;;;21.62;58.37;101555.78;5054553;28;20533;-61
2021/08/10 07:18:02;;;;;;;5.75;1.58;;;;;;;21.62;58.29;101553.16;5054839;28;20033;-59
2021/08/10 07:20:28;;;;;;;5.70;2.00;;;;;;;21.60;58.22;101555.06;5055087;28;20021;-59
2021/08/10 07:22:53;;;;;;;4.43;1.88;;;;;;;21.60;58.26;101563.03;5054066;28;20036;-59
2021/08/10 07:25:22;;;;;;;4.13;1.83;;;;;;;21.60;58.22;101555.06;5054727;28;20017;-59
2021/08/10 07:27:47;;;;;;;5.70;1.80;;;;;;;21.60;58.28;101565.69;5054378;28;20506;-62
2021/08/10 07:30:13;;;;;;;3.92;1.55;;;;;;;21.61;58.18;101559.41;5053537;28;20025;-62
2021/08/10 07:32:39;;;;;;;4.53;1.70;;;;;;;21.63;58.20;101562.75;5054704;28;20392;-61
2021/08/10 07:35:05;;;;;;;6.43;2.20;;;;;;;21.66;58.10;101557.19;5054599;28;20021;-60
2021/08/10 07:37:30;;;;;;;5.10;1.65;;;;;;;21.66;58.15;101562.50;5054259;28;20036;-61
2021/08/10 07:39:55;;;;;;;4.00;1.60;;;;;;;21.69;58.08;101574.69;5055018;28;20061;-62
2021/08/10 07:42:21;;;;;;;5.40;1.70;;;;;;;21.72;58.00;101569.94;5055098;28;20017;-60
2021/08/10 07:44:47;;;;;;;4.57;1.83;;;;;;;21.71;58.24;101565.63;5053318;28;20052;-61
2021/08/10 07:47:12;;;;;;;5.20;2.00;;;;;;;21.71;57.66;101570.06;5054398;28;20056;-60
2021/08/10 07:49:38;;;;;;;5.60;1.85;;;;;;;21.69;57.80;101567.56;5054256;28;20032;-60
2021/08/10 07:52:04;;;;;;;5.20;1.75;;;;;;;21.68;58.16;101568.53;5053157;28;20024;-60
2021/08/10 07:54:29;;;;;;;4.20;1.80;;;;;;;21.68;57.94;101568.53;5054170;28;20050;-60
2021/08/10 07:56:56;;;;;;;6.25;2.05;;;;;;;21.68;57.89;101568.53;5054025;28;20104;-59
2021/08/10 07:59:22;;;;;;;4.50;1.90;;;;;;;21.69;57.65;101574.69;5053508;28;20017;-59
2021/08/10 08:01:47;;;;;;;4.75;1.83;;;;;;;21.70;57.96;101565.75;5053716;28;20025;-60
2021/08/10 08:04:12;;;;;;;4.28;1.83;;;;;;;21.70;57.79;101561.28;5052084;28;20060;-60
2021/08/10 08:06:38;;;;;;;4.78;1.77;;;;;;;21.69;58.18;101564.91;5052958;28;20093;-60
2021/08/10 08:09:06;;;;;;;5.13;1.90;;;;;;;21.69;57.83;101564.91;5053632;28;20449;-60
2021/08/10 08:11:31;;;;;;;6.78;2.28;;;;;;;21.70;57.88;101574.56;5053283;28;20274;-61
2021/08/10 08:13:59;;;;;;;6.35;2.00;;;;;;;21.69;57.64;101559.59;5053632;28;20025;-60
2021/08/10 08:16:25;;;;;;;5.53;2.03;;;;;;;21.68;57.82;101565.88;5053244;28;20033;-60
2021/08/10 08:18:50;;;;;;;5.85;1.95;;;;;;;21.70;57.82;101566.59;5052647;28;20013;-60
2021/08/10 08:21:15;;;;;;;4.45;1.80;;;;;;;21.68;57.70;101568.53;5053603;28;20032;-59
2021/08/10 08:23:43;;;;;;;5.70;1.60;;;;;;;21.69;57.88;101564.91;5053715;28;20021;-60
2021/08/10 08:26:09;;;;;;;6.30;1.85;;;;;;;21.72;57.81;101561.16;5053234;28;20079;-60
2021/08/10 08:28:40;;;;;;;3.37;1.70;;;;;;;21.72;57.76;101556.69;5053672;28;20037;-60
2021/08/10 08:31:08;;;;;;;5.35;1.90;;;;;;;21.73;57.73;101561.03;5053471;28;20025;-60
2021/08/10 08:33:33;;;;;;;3.53;1.60;;;;;;;21.73;57.91;101553.06;5052751;28;20420;-60
2021/08/10 08:35:59;;;;;;;4.20;1.83;;;;;;;21.71;57.77;101543.53;5053267;28;20094;-60
2021/08/10 08:38:24;;;;;;;4.93;2.20;;;;;;;21.74;57.85;101552.06;5053312;28;20277;-60
2021/08/10 08:40:49;;;;;;;4.43;1.65;;;;;;;21.75;57.75;101542.31;5051720;28;20033;-60
2021/08/10 08:43:19;;;;;;;4.45;1.80;;;;;;;21.76;57.76;101538.69;5053359;28;20378;-60
2021/08/10 08:45:44;;;;;;;3.35;1.50;;;;;;;21.77;57.94;101544.84;5053055;28;20051;-62
2021/08/10 08:48:14;;;;;;;4.47;1.80;;;;;;;21.75;57.85;101542.31;5052529;28;20384;-61
2021/08/10 08:50:41;;;;;;;4.28;1.65;;;;;;;21.78;57.67;101547.38;5053228;28;20346;-61
2021/08/10 08:53:10;;;;;;;3.90;1.70;;;;;;;21.78;57.68;101547.38;5053032;28;20020;-60
2021/08/10 08:55:43;;;;;;;4.38;1.60;;;;;;;21.76;57.73;101551.94;5052456;28;20028;-60
2021/08/10 08:58:11;;;;;;;4.93;1.83;;;;;;;21.76;57.81;101548.47;5053060;28;20491;-61
2021/08/10 09:00:37;;;;;;;3.40;1.40;;;;;;;21.75;57.51;101544.97;5052345;28;20025;-61
2021/08/10 09:03:03;;;;;;;3.97;1.70;;;;;;;21.75;57.83;101539.66;5052778;28;20028;-60
2021/08/10 09:05:28;;;;;;;4.03;1.55;;;;;;;21.74;57.84;101549.41;5053170;28;20093;-60
2021/08/10 09:07:56;;;;;;;4.68;1.83;;;;;;;21.76;57.89;101545.81;5051883;28;20120;-61
2021/08/10 09:10:27;;;;;;;4.47;2.13;;;;;;;21.74;57.95;101549.41;5053117;28;20021;-60
2021/08/10 09:12:54;;;;;;;7.45;1.60;;;;;;;21.74;57.96;101548.59;5052379;28;20021;-60
2021/08/10 09:15:36;;;;;;;5.45;1.88;;;;;;;21.74;57.91;101549.41;5051981;28;20385;-60
2021/08/10 09:18:16;;;;;;;3.60;1.50;;;;;;;21.73;58.03;101553.06;5052469;28;20380;-60
2021/08/10 09:20:59;;;;;;;3.80;1.73;;;;;;;21.73;57.77;101553.06;5052759;28;20036;-60
2021/08/10 09:23:45;;;;;;;3.50;1.55;;;;;;;21.73;57.80;101550.41;5051865;28;20029;-60
2021/08/10 09:26:32;;;;;;;4.47;1.60;;;;;;;21.72;57.90;101554.03;5052236;28;20067;-60
2021/08/10 09:28:59;;;;;;;4.55;1.52;;;;;;;21.73;57.91;101565.50;5040680;28;20104;-60
2021/08/10 09:31:45;;;;;;;3.80;1.65;;;;;;;21.72;57.92;101562.00;5052314;28;20021;-60
2021/08/10 09:34:19;;;;;;;3.97;1.83;;;;;;;21.72;57.97;101564.63;5052351;28;20050;-60
2021/08/10 09:36:45;;;;;;;3.45;1.65;;;;;;;21.72;58.06;101555.84;5051191;28;20025;-60
2021/08/10 09:39:10;;;;;;;4.38;1.50;;;;;;;21.71;58.06;101560.31;5052380;28;20234;-60
2021/08/10 09:41:36;;;;;;;4.25;1.80;;;;;;;21.71;58.04;101564.78;5052409;28;20526;-60
2021/08/10 09:44:13;;;;;;;3.25;1.60;;;;;;;21.72;57.97;101567.28;5051057;28;20413;-60
2021/08/10 09:46:51;;;;;;;4.53;1.63;;;;;;;21.72;58.19;101564.63;5052012;28;20396;-60
2021/08/10 09:49:20;;;;;;;4.53;1.60;;;;;;;21.70;57.92;101569.25;5052356;28;20029;-60
2021/08/10 09:51:48;;;;;;;3.70;1.30;;;;;;;21.72;58.04;101575.25;5051205;28;20033;-60
2021/08/10 09:54:16;;;;;;;4.35;2.03;;;;;;;21.71;58.02;101570.06;5051674;28;20464;-59
2021/08/10 09:57:06;;;;;;;4.82;1.70;;;;;;;21.71;58.12;101568.28;5052081;28;20017;-60
2021/08/10 09:59:43;;;;;;;4.05;1.40;;;;;;;21.72;58.18;101571.75;5051872;28;20469;-60
2021/08/10 10:02:18;;;;;;;4.45;1.60;;;;;;;21.72;58.03;101574.41;5052207;28;20029;-58
2021/08/10 10:04:54;;;;;;;4.82;1.80;;;;;;;21.70;58.07;101563.09;5050809;28;20503;-62
2021/08/10 10:07:20;;;;;;;3.80;1.55;;;;;;;21.71;58.24;101568.28;5052038;28;20469;-67
2021/08/10 10:09:46;;;;;;;5.20;1.55;;;;;;;21.73;58.11;101576.13;5051796;28;20027;-61
2021/08/10 10:12:13;;;;;;;4.05;1.70;;;;;;;21.72;58.21;101574.41;5051424;28;20025;-60
2021/08/10 10:14:39;;;;;;;3.72;1.55;;;;;;;21.73;57.97;101568.16;5052490;28;20021;-61
2021/08/10 10:17:05;;;;;;;3.80;1.60;;;;;;;21.75;58.29;101576.81;5053162;28;20104;-62
2021/08/10 10:19:35;;;;;;;4.13;1.52;;;;;;;21.77;58.61;101571.38;5052342;28;20032;-63
2021/08/10 10:22:04;;;;;;;3.25;1.52;;;;;;;21.78;58.68;101579.22;5054464;28;20032;-62
2021/08/10 10:24:35;;;;;;;3.97;1.52;;;;;;;21.79;58.61;101578.22;5052737;28;20033;-62
2021/08/10 10:27:03;;;;;;;4.45;1.33;;;;;;;21.80;58.79;101577.25;5051808;28;20035;-61
2021/08/10 10:29:30;;;;;;;3.00;1.33;;;;;;;21.81;58.68;101578.94;5052023;28;20036;-61
2021/08/10 10:31:56;;;;;;;4.25;1.60;;;;;;;21.81;58.68;101576.28;5051770;28;20116;-59
2021/08/10 10:34:21;;;;;;;3.35;1.45;;;;;;;21.81;58.51;101568.34;5052973;28;20017;-63
2021/08/10 10:36:49;;;;;;;3.58;1.42;;;;;;;21.81;58.46;101565.69;5051498;28;20487;-65
2021/08/10 10:39:23;;;;;;;3.40;1.30;;;;;;;21.83;58.34;101571.69;5052482;28;20052;-62
2021/08/10 10:41:53;;;;;;;3.35;1.40;;;;;;;21.86;58.04;101563.47;5052411;28;20040;-62
2021/08/10 10:44:40;;;;;;;3.60;1.20;;;;;;;21.87;58.49;101562.50;5051872;28;20100;-60
2021/08/10 10:47:23;;;;;;;3.25;1.38;;;;;;;21.90;58.74;101570.19;5050918;28;20033;-61
2021/08/10 10:50:13;;;;;;;3.58;1.40;;;;;;;21.92;58.56;101562.06;5052285;28;20021;-61
2021/08/10 10:52:39;;;;;;;5.22;1.75;;;;;;;21.92;58.89;101562.94;5052047;28;20508;-61
2021/08/10 10:55:05;;;;;;;4.22;1.52;;;;;;;21.95;58.57;101561.81;5051139;28;20031;-62
2021/08/10 10:57:33;;;;;;;2.80;1.33;;;;;;;21.96;58.38;101560.03;5051831;28;20106;-63
2021/08/10 11:00:08;;;;;;;3.97;1.30;;;;;;;21.98;58.49;101564.19;5052140;28;20028;-62
2021/08/10 11:02:38;;;;;;;3.63;1.27;;;;;;;21.98;58.56;101564.19;5051760;28;20044;-60
2021/08/10 11:05:06;;;;;;;3.60;1.60;;;;;;;21.99;58.66;101560.59;5051421;28;20037;-63
2021/08/10 11:07:39;;;;;;;3.00;1.30;;;;;;;22.01;58.73;101558.63;5054352;28;20480;-60
2021/08/10 11:10:10;;;;;;;3.85;1.40;;;;;;;22.03;58.51;101563.81;5054776;28;20033;-59
2021/08/10 11:12:41;;;;;;;3.08;1.52;;;;;;;22.04;58.65;101558.38;5055734;28;20071;-61
2021/08/10 11:15:07;;;;;;;3.47;1.27;;;;;;;22.04;58.72;101552.22;5055068;28;20484;-60
2021/08/10 11:17:33;;;;;;;3.05;1.40;;;;;;;22.05;58.66;101560.06;5055120;28;20179;-60
2021/08/10 11:20:25;;;;;;;5.13;1.33;;;;;;;22.05;58.75;101568.03;5054601;28;20028;-59
2021/08/10 11:23:16;;;;;;;4.15;1.40;;;;;;;22.06;58.74;101572.38;5053793;28;20053;-59
2021/08/10 11:25:42;;;;;;;3.75;2.08;;;;;;;22.07;58.83;101570.53;5054750;28;20060;-59
2021/08/10 11:28:29;;;;;;;2.83;1.38;;;;;;;22.08;58.80;101561.63;5054632;28;20453;-60
2021/08/10 11:31:03;;;;;;;3.03;1.48;;;;;;;22.05;58.95;101569.84;5055773;28;20520;-60